Time;durP1;ratioP1;P1;durP2;ratioP2;P2;SDS_P1;SDS_P2;PMS_P1;PMS_P2;Temp;Humidity;BMP_temperature;BMP_pressure;BME280_temperature;BME280_humidity;BME280_pressure;Samples;Min_cycle;Max_cycle;Signal;HPM_P1;HPM_P2
2021/12/27 00:02:07;;;;;;;7.18;2.13;;;23.20;87.30;;;;;;5073878;28;20032;-52
2021/12/27 00:04:34;;;;;;;6.30;1.63;;;23.30;87.30;;;;;;5075395;28;20025;-56
2021/12/27 00:07:02;;;;;;;6.88;2.50;;;23.30;87.20;;;;;;5075532;28;20017;-52
2021/12/27 00:09:43;;;;;;;;;;;;;;;;;;;;;
2021/12/27 00:12:11;;;;;;;4.95;1.60;;;23.30;87.30;;;;;;5071907;28;20051;-56
2021/12/27 00:14:38;;;;;;;6.78;2.42;;;23.30;87.00;;;;;;5075514;28;20028;-57
2021/12/27 00:17:05;;;;;;;7.05;1.42;;;23.40;86.90;;;;;;5075318;28;20021;-58
2021/12/27 00:19:33;;;;;;;8.50;2.10;;;23.40;86.90;;;;;;5074718;28;20021;-48
2021/12/27 00:22:01;;;;;;;6.15;2.00;;;23.40;86.90;;;;;;5075072;28;20068;-56
2021/12/27 00:24:28;;;;;;;6.03;1.80;;;23.40;86.60;;;;;;5073773;28;20059;-49
2021/12/27 00:26:55;;;;;;;6.45;1.77;;;23.40;86.40;;;;;;5075366;28;20029;-45
2021/12/27 00:29:23;;;;;;;9.77;2.55;;;23.50;86.70;;;;;;5073325;28;20040;-50
2021/12/27 00:31:50;;;;;;;6.85;1.80;;;23.50;86.70;;;;;;5075112;28;20021;-51
2021/12/27 00:34:18;;;;;;;7.55;1.67;;;23.50;86.60;;;;;;5073841;28;20415;-58
2021/12/27 00:36:45;;;;;;;6.00;1.95;;;23.50;86.40;;;;;;5075399;28;20490;-55
2021/12/27 00:39:13;;;;;;;5.07;2.10;;;23.60;86.10;;;;;;5075020;28;20108;-53
2021/12/27 00:41:40;;;;;;;7.88;1.88;;;23.50;86.00;;;;;;5074017;28;20059;-54
2021/12/27 00:44:09;;;;;;;6.47;1.88;;;23.60;86.00;;;;;;5074321;28;20029;-53
2021/12/27 00:46:36;;;;;;;6.53;1.55;;;23.60;85.90;;;;;;5074379;28;20081;-52
2021/12/27 00:49:03;;;;;;;5.82;1.70;;;23.70;86.20;;;;;;5074307;28;20040;-58
2021/12/27 00:51:31;;;;;;;6.80;2.17;;;23.70;86.00;;;;;;5074866;28;20023;-52
2021/12/27 00:54:01;;;;;;;10.07;2.58;;;23.70;86.00;;;;;;5074703;28;20174;-52
2021/12/27 00:56:29;;;;;;;6.78;2.10;;;23.80;85.70;;;;;;5075352;28;20025;-56
2021/12/27 00:58:56;;;;;;;5.78;1.90;;;23.80;85.70;;;;;;5074176;28;20036;-59
2021/12/27 01:01:24;;;;;;;7.70;2.13;;;23.90;85.50;;;;;;5073530;28;20442;-55
2021/12/27 01:03:51;;;;;;;7.03;1.70;;;23.90;84.40;;;;;;5074790;28;20108;-55
2021/12/27 01:06:19;;;;;;;9.77;1.88;;;23.90;85.40;;;;;;5073603;28;20043;-55
2021/12/27 01:08:46;;;;;;;8.65;2.40;;;24.00;85.10;;;;;;5074284;28;20036;-56
2021/12/27 01:11:25;;;;;;;13.13;2.28;;;24.00;85.00;;;;;;5074619;28;20344;-57
2021/12/27 01:14:08;;;;;;;5.68;1.83;;;24.00;84.80;;;;;;5072987;28;20029;-54
2021/12/27 01:16:37;;;;;;;5.95;2.08;;;24.10;83.60;;;;;;5074231;28;20483;-56
2021/12/27 01:19:06;;;;;;;7.22;1.85;;;24.20;84.40;;;;;;5074543;28;20028;-60
2021/12/27 01:21:39;;;;;;;4.93;2.08;;;24.20;83.50;;;;;;5073221;28;20028;-56
2021/12/27 01:24:07;;;;;;;7.90;2.63;;;24.20;83.90;;;;;;5074054;28;20116;-55
2021/12/27 01:26:34;;;;;;;5.88;2.22;;;24.30;83.60;;;;;;5072812;28;20016;-57
2021/12/27 01:29:02;;;;;;;5.63;1.95;;;24.30;83.70;;;;;;5073900;28;20132;-59
2021/12/27 01:31:30;;;;;;;5.03;1.88;;;24.30;82.50;;;;;;5071657;28;20055;-58
2021/12/27 01:33:57;;;;;;;5.90;1.83;;;24.30;83.00;;;;;;5072597;28;20032;-54
2021/12/27 01:36:27;;;;;;;4.78;2.00;;;24.40;82.60;;;;;;5074047;28;20025;-50
2021/12/27 01:38:54;;;;;;;8.55;2.70;;;24.40;82.10;;;;;;5072519;28;20379;-56
2021/12/27 01:41:22;;;;;;;6.35;2.13;;;24.50;82.10;;;;;;5073753;28;20032;-55
2021/12/27 01:43:49;;;;;;;8.10;2.33;;;24.50;81.80;;;;;;5073715;28;20059;-55
2021/12/27 01:46:23;;;;;;;6.93;2.17;;;24.50;81.70;;;;;;5073517;28;20024;-53
2021/12/27 01:48:56;;;;;;;6.35;2.22;;;24.50;81.40;;;;;;5073261;28;20029;-54
2021/12/27 01:51:26;;;;;;;7.45;2.40;;;24.60;81.40;;;;;;5073560;28;20075;-56
2021/12/27 01:53:55;;;;;;;6.50;2.28;;;24.60;81.80;;;;;;5071964;28;20059;-55
2021/12/27 01:56:23;;;;;;;7.38;2.97;;;24.60;80.90;;;;;;5073196;28;20021;-58
2021/12/27 01:58:55;;;;;;;6.50;1.98;;;24.70;81.00;;;;;;5073404;28;20406;-57
2021/12/27 02:01:23;;;;;;;4.93;1.52;;;24.70;80.60;;;;;;5073236;28;20029;-56
2021/12/27 02:03:52;;;;;;;7.10;1.90;;;24.70;81.30;;;;;;5072834;28;20155;-51
2021/12/27 02:06:20;;;;;;;5.63;1.77;;;24.80;80.10;;;;;;5073170;28;20412;-58
2021/12/27 02:08:48;;;;;;;6.05;2.10;;;24.80;81.10;;;;;;5073322;28;20043;-60
2021/12/27 02:11:19;;;;;;;5.25;1.88;;;24.80;79.60;;;;;;5073489;28;20020;-57
2021/12/27 02:13:48;;;;;;;6.37;2.40;;;24.90;80.60;;;;;;5073371;28;20426;-53
2021/12/27 02:16:22;;;;;;;8.80;2.92;;;24.80;80.40;;;;;;5072685;28;20029;-56
2021/12/27 02:18:50;;;;;;;6.22;2.10;;;24.90;80.80;;;;;;5073153;28;20475;-56
2021/12/27 02:21:18;;;;;;;5.10;1.85;;;24.90;80.10;;;;;;5073009;28;20024;-56
2021/12/27 02:23:48;;;;;;;5.63;1.90;;;24.90;80.40;;;;;;5072879;28;20542;-54
2021/12/27 02:26:15;;;;;;;5.82;1.80;;;24.90;80.70;;;;;;5072744;28;20356;-51
2021/12/27 02:28:43;;;;;;;7.63;2.38;;;24.90;80.20;;;;;;5072620;28;20045;-57
2021/12/27 02:31:10;;;;;;;5.90;2.22;;;24.90;81.00;;;;;;5073157;28;20044;-57
2021/12/27 02:33:40;;;;;;;10.90;2.38;;;24.90;80.50;;;;;;5072990;28;20024;-59
2021/12/27 02:36:14;;;;;;;7.75;2.50;;;24.90;80.20;;;;;;5072609;28;20414;-57
2021/12/27 02:38:46;;;;;;;7.78;2.13;;;24.90;80.70;;;;;;5072858;28;20048;-56
2021/12/27 02:41:17;;;;;;;6.85;2.15;;;24.90;80.50;;;;;;5073022;28;20016;-58
2021/12/27 02:43:44;;;;;;;6.65;2.20;;;24.90;80.30;;;;;;5073120;28;20028;-51
2021/12/27 02:46:15;;;;;;;6.75;2.20;;;24.90;80.00;;;;;;5072555;28;20329;-61
2021/12/27 02:48:50;;;;;;;6.38;2.42;;;24.90;80.40;;;;;;5073439;28;20039;-56
2021/12/27 02:51:19;;;;;;;5.70;1.73;;;24.90;80.80;;;;;;5073288;28;20124;-51
2021/12/27 02:53:50;;;;;;;6.18;2.13;;;24.90;80.60;;;;;;5072887;28;20415;-56
2021/12/27 02:56:19;;;;;;;9.13;2.35;;;24.80;80.50;;;;;;5073009;28;20048;-56
2021/12/27 02:58:50;;;;;;;7.63;2.13;;;24.90;80.90;;;;;;5071657;28;20093;-58
2021/12/27 03:01:21;;;;;;;6.18;2.05;;;24.80;80.90;;;;;;5073198;28;20476;-61
2021/12/27 03:04:06;;;;;;;5.82;2.17;;;24.80;80.90;;;;;;5072877;28;20025;-59
2021/12/27 03:06:34;;;;;;;5.10;1.77;;;24.80;81.10;;;;;;5073354;28;20025;-56
2021/12/27 03:09:01;;;;;;;5.80;1.58;;;24.80;81.00;;;;;;5073214;28;20383;-57
2021/12/27 03:11:28;;;;;;;7.15;1.80;;;24.80;80.60;;;;;;5072623;28;20409;-52
2021/12/27 03:13:59;;;;;;;5.45;2.10;;;24.80;81.30;;;;;;5072507;28;20494;-55
2021/12/27 03:16:27;;;;;;;9.57;2.22;;;24.70;81.50;;;;;;5072103;28;20036;-58
2021/12/27 03:18:55;;;;;;;4.05;1.50;;;24.70;81.50;;;;;;5073144;28;20085;-53
2021/12/27 03:21:23;;;;;;;6.45;2.05;;;24.70;81.70;;;;;;5071614;28;20028;-55
2021/12/27 03:23:59;;;;;;;6.72;2.08;;;24.70;81.50;;;;;;5072676;28;20108;-55
2021/12/27 03:26:27;;;;;;;5.30;1.75;;;24.70;81.60;;;;;;5072760;28;20025;-59
2021/12/27 03:28:54;;;;;;;5.53;2.20;;;24.70;81.50;;;;;;5072570;28;20028;-56
2021/12/27 03:31:21;;;;;;;6.35;1.92;;;24.60;81.90;;;;;;5072390;28;20035;-60
2021/12/27 03:33:49;;;;;;;4.95;1.60;;;24.60;81.20;;;;;;5072619;28;20020;-58
2021/12/27 03:36:17;;;;;;;6.32;2.05;;;24.60;82.00;;;;;;5072156;28;20509;-57
2021/12/27 03:38:49;;;;;;;5.25;1.77;;;24.60;82.50;;;;;;5071986;28;20074;-58
2021/12/27 03:41:22;;;;;;;4.40;1.80;;;24.60;82.00;;;;;;5072445;28;20032;-60
2021/12/27 03:43:50;;;;;;;7.70;2.15;;;24.60;81.70;;;;;;5072030;28;20024;-58
2021/12/27 03:46:17;;;;;;;7.57;1.55;;;24.60;81.80;;;;;;5071286;28;20371;-59
2021/12/27 03:48:45;;;;;;;4.43;1.60;;;24.60;82.60;;;;;;5072331;28;20107;-60
2021/12/27 03:51:16;;;;;;;6.72;2.78;;;24.60;82.30;;;;;;5072370;28;20379;-53
2021/12/27 03:53:44;;;;;;;5.45;1.50;;;24.50;82.40;;;;;;5070666;28;20487;-52
2021/12/27 03:56:11;;;;;;;4.68;1.67;;;24.50;82.30;;;;;;5074366;28;20036;-54
2021/12/27 03:58:56;;;;;;;3.85;1.67;;;24.50;82.60;;;;;;5075360;28;20029;-59
2021/12/27 04:01:25;;;;;;;4.57;1.83;;;24.50;82.50;;;;;;5075870;28;20020;-61
2021/12/27 04:03:59;;;;;;;4.22;1.45;;;24.50;82.90;;;;;;5075765;28;20099;-52
2021/12/27 04:06:28;;;;;;;6.82;1.80;;;24.50;82.70;;;;;;5076811;28;20028;-55
2021/12/27 04:08:56;;;;;;;4.82;1.65;;;24.50;82.00;;;;;;5074928;28;20045;-56
2021/12/27 04:11:24;;;;;;;5.63;1.40;;;24.50;82.80;;;;;;5076290;28;20016;-58
2021/12/27 04:13:51;;;;;;;5.90;2.03;;;24.50;82.70;;;;;;5075488;28;20098;-54
2021/12/27 04:16:19;;;;;;;4.10;1.40;;;24.50;82.60;;;;;;5075497;28;20099;-61
2021/12/27 04:18:46;;;;;;;5.85;1.92;;;24.50;82.60;;;;;;5075563;28;20028;-59
2021/12/27 04:21:14;;;;;;;3.92;1.50;;;24.60;82.80;;;;;;5075397;28;20050;-60
2021/12/27 04:23:42;;;;;;;6.07;1.58;;;24.60;82.80;;;;;;5075792;28;20046;-53
2021/12/27 04:26:13;;;;;;;3.40;1.17;;;24.60;82.00;;;;;;5075357;28;20379;-62
2021/12/27 04:28:43;;;;;;;3.10;1.17;;;24.70;82.20;;;;;;5076191;28;20116;-61
2021/12/27 04:31:11;;;;;;;6.07;1.58;;;24.70;82.20;;;;;;5074688;28;20475;-55
2021/12/27 04:33:39;;;;;;;6.28;1.77;;;24.80;81.80;;;;;;5075620;28;20036;-52
2021/12/27 04:36:06;;;;;;;4.15;1.48;;;24.80;81.80;;;;;;5075236;28;20082;-58
2021/12/27 04:38:34;;;;;;;6.10;2.08;;;24.80;81.70;;;;;;5075604;28;20028;-59
2021/12/27 04:41:03;;;;;;;5.18;1.58;;;24.90;81.40;;;;;;5075369;28;20029;-60
2021/12/27 04:43:37;;;;;;;4.00;1.52;;;24.90;81.80;;;;;;5074018;28;20017;-60
2021/12/27 04:46:05;;;;;;;5.95;1.60;;;24.90;81.30;;;;;;5075094;28;20544;-56
2021/12/27 04:48:38;;;;;;;3.65;1.30;;;24.90;81.30;;;;;;5075284;28;20082;-59
2021/12/27 04:51:06;;;;;;;4.25;1.58;;;24.90;81.50;;;;;;5075034;28;20040;-60
2021/12/27 04:53:33;;;;;;;3.83;1.40;;;24.90;81.30;;;;;;5074526;28;20050;-55
2021/12/27 04:56:04;;;;;;;5.85;1.75;;;24.90;81.20;;;;;;5074816;28;20025;-58
2021/12/27 04:58:31;;;;;;;5.57;1.63;;;24.90;80.80;;;;;;5074941;28;20028;-55
2021/12/27 05:00:59;;;;;;;4.75;1.35;;;25.00;81.30;;;;;;5073105;28;20028;-59
2021/12/27 05:03:26;;;;;;;4.65;1.42;;;25.00;81.50;;;;;;5074930;28;20059;-56
2021/12/27 05:05:54;;;;;;;3.90;1.33;;;25.00;81.50;;;;;;5073586;28;20024;-60
2021/12/27 05:08:53;;;;;;;6.88;1.85;;;25.10;81.30;;;;;;5074934;28;20079;-62
2021/12/27 05:11:21;;;;;;;3.47;1.40;;;25.10;81.40;;;;;;5073380;28;20127;-51
2021/12/27 05:13:52;;;;;;;3.80;1.50;;;25.00;81.20;;;;;;5074659;28;20028;-57
2021/12/27 05:16:28;;;;;;;5.65;1.80;;;25.00;81.80;;;;;;5074557;28;20052;-58
2021/12/27 05:19:05;;;;;;;2.53;1.20;;;25.00;81.70;;;;;;5075315;28;20056;-58
2021/12/27 05:21:43;;;;;;;2.85;1.15;;;25.00;82.00;;;;;;5074561;28;20025;-59
2021/12/27 05:24:12;;;;;;;1.95;1.25;;;24.90;82.20;;;;;;5074679;28;20103;-59
2021/12/27 05:26:49;;;;;;;2.90;1.17;;;24.90;82.40;;;;;;5073023;28;20029;-54
2021/12/27 05:29:18;;;;;;;2.90;1.20;;;24.90;82.60;;;;;;5074137;28;20115;-56
2021/12/27 05:31:45;;;;;;;3.30;1.35;;;24.80;83.00;;;;;;5074134;28;20021;-55
2021/12/27 05:34:14;;;;;;;1.98;0.90;;;24.80;82.80;;;;;;5073998;28;20036;-54
2021/12/27 05:36:45;;;;;;;2.20;0.98;;;24.70;82.80;;;;;;5073918;28;20029;-61
2021/12/27 05:39:20;;;;;;;3.08;1.10;;;24.70;83.00;;;;;;5074000;28;20021;-57
2021/12/27 05:41:48;;;;;;;3.80;0.90;;;24.60;83.20;;;;;;5074538;28;20033;-61
2021/12/27 05:44:18;;;;;;;1.92;0.90;;;24.60;83.50;;;;;;5074282;28;20020;-57
2021/12/27 05:46:46;;;;;;;4.70;1.40;;;24.50;83.40;;;;;;5074208;28;20109;-58
2021/12/27 05:49:17;;;;;;;2.38;1.00;;;24.50;83.70;;;;;;5073993;28;20119;-54
2021/12/27 05:51:44;;;;;;;2.83;1.20;;;24.40;83.80;;;;;;5073749;28;20027;-51
2021/12/27 05:54:13;;;;;;;3.95;1.10;;;24.40;84.10;;;;;;5073531;28;20044;-58
2021/12/27 05:56:43;;;;;;;2.35;0.95;;;24.30;84.30;;;;;;5073338;28;20031;-58
2021/12/27 05:59:16;;;;;;;2.65;1.13;;;24.30;84.80;;;;;;5073283;28;20119;-59
2021/12/27 06:01:45;;;;;;;2.88;1.10;;;24.30;84.90;;;;;;5074107;28;20103;-58
2021/12/27 06:04:13;;;;;;;4.30;1.20;;;24.30;85.30;;;;;;5073385;28;20025;-59
2021/12/27 06:06:40;;;;;;;4.25;1.58;;;24.30;85.30;;;;;;5072726;28;20024;-56
2021/12/27 06:09:08;;;;;;;3.53;0.98;;;24.20;85.50;;;;;;5073602;28;20077;-54
2021/12/27 06:11:38;;;;;;;2.70;1.02;;;24.10;85.50;;;;;;5073901;28;20425;-52
2021/12/27 06:14:06;;;;;;;3.85;1.42;;;24.10;85.60;;;;;;5073374;28;20025;-60
2021/12/27 06:16:36;;;;;;;2.10;1.10;;;24.10;85.80;;;;;;5073194;28;20062;-60
2021/12/27 06:19:03;;;;;;;6.93;1.45;;;24.00;85.90;;;;;;5073691;28;20032;-57
2021/12/27 06:21:33;;;;;;;2.83;1.30;;;24.00;86.50;;;;;;5073387;28;20025;-59
2021/12/27 06:24:01;;;;;;;3.10;1.08;;;24.00;86.50;;;;;;5072981;28;20029;-56
2021/12/27 06:26:35;;;;;;;2.95;1.13;;;23.90;86.60;;;;;;5073631;28;20025;-55
2021/12/27 06:29:02;;;;;;;4.90;1.80;;;23.90;86.80;;;;;;5072882;28;20032;-58
2021/12/27 06:31:30;;;;;;;2.45;1.20;;;23.90;87.10;;;;;;5072035;28;20116;-61
2021/12/27 06:33:57;;;;;;;3.55;1.30;;;23.80;87.10;;;;;;5071819;28;20028;-57
2021/12/27 06:36:25;;;;;;;2.55;1.08;;;23.80;87.50;;;;;;5073651;28;20048;-53
2021/12/27 06:38:52;;;;;;;4.55;1.38;;;23.80;87.50;;;;;;5073452;28;20108;-56
2021/12/27 06:41:20;;;;;;;3.33;1.02;;;23.80;87.50;;;;;;5073235;28;20017;-58
2021/12/27 06:43:47;;;;;;;3.55;1.15;;;23.80;87.60;;;;;;5072528;28;20029;-55
2021/12/27 06:46:14;;;;;;;3.90;1.30;;;23.70;87.70;;;;;;5073067;28;20036;-59
2021/12/27 06:48:42;;;;;;;3.17;1.25;;;23.70;87.70;;;;;;5073679;28;20044;-61
2021/12/27 06:51:09;;;;;;;4.47;1.38;;;23.70;87.70;;;;;;5073208;28;20108;-60
2021/12/27 06:53:37;;;;;;;2.33;1.02;;;23.70;87.70;;;;;;5073305;28;20551;-55
2021/12/27 06:56:06;;;;;;;3.75;1.02;;;23.70;87.80;;;;;;5073265;28;20157;-56
2021/12/27 06:58:33;;;;;;;3.47;1.23;;;23.70;87.80;;;;;;5073715;28;20108;-53
2021/12/27 07:01:01;;;;;;;3.20;1.20;;;23.60;87.80;;;;;;5073303;28;20078;-57
2021/12/27 07:03:28;;;;;;;3.65;1.23;;;23.60;87.90;;;;;;5073221;28;20498;-59
2021/12/27 07:05:56;;;;;;;4.78;1.48;;;23.60;88.00;;;;;;5072985;28;20020;-59
2021/12/27 07:08:23;;;;;;;4.18;1.33;;;23.60;88.10;;;;;;5073016;28;20046;-58
2021/12/27 07:10:51;;;;;;;3.70;0.90;;;23.60;88.10;;;;;;5073390;28;20414;-59
2021/12/27 07:13:19;;;;;;;5.43;1.65;;;23.60;88.10;;;;;;5072702;28;20017;-63
2021/12/27 07:15:46;;;;;;;2.78;1.13;;;23.50;88.10;;;;;;5073142;28;20206;-65
2021/12/27 07:18:22;;;;;;;3.83;1.38;;;23.50;88.10;;;;;;5072722;28;20020;-61
2021/12/27 07:20:54;;;;;;;3.00;1.10;;;23.50;88.10;;;;;;5071705;28;20029;-57
2021/12/27 07:23:33;;;;;;;3.35;1.42;;;23.50;88.20;;;;;;5072934;28;20012;-56
2021/12/27 07:26:00;;;;;;;4.07;1.35;;;23.50;88.30;;;;;;5072963;28;20486;-60
2021/12/27 07:28:31;;;;;;;5.43;1.23;;;23.50;88.40;;;;;;5072715;28;20489;-61
2021/12/27 07:31:02;;;;;;;4.50;1.27;;;23.40;88.30;;;;;;5077169;28;20474;-55
2021/12/27 07:33:42;;;;;;;4.32;1.42;;;23.40;88.40;;;;;;5077023;28;20051;-61
2021/12/27 07:36:13;;;;;;;3.75;1.38;;;23.40;88.40;;;;;;5076844;28;20073;-61
2021/12/27 07:38:41;;;;;;;3.60;1.08;;;23.40;88.50;;;;;;5075511;28;20029;-60
2021/12/27 07:41:10;;;;;;;3.33;1.52;;;23.40;88.50;;;;;;5076938;28;20091;-57
2021/12/27 07:43:37;;;;;;;2.60;1.30;;;23.40;88.60;;;;;;5076385;28;20078;-56
2021/12/27 07:46:05;;;;;;;4.53;1.50;;;23.40;88.60;;;;;;5076619;28;20613;-59
2021/12/27 07:48:32;;;;;;;6.75;1.95;;;23.40;88.60;;;;;;5076741;28;20483;-58
2021/12/27 07:51:00;;;;;;;4.70;1.63;;;23.30;88.60;;;;;;5076277;28;20493;-58
2021/12/27 07:53:27;;;;;;;3.47;1.00;;;23.30;88.60;;;;;;5076324;28;20045;-60
2021/12/27 07:55:55;;;;;;;3.45;1.13;;;23.30;88.70;;;;;;5076471;28;20025;-56
2021/12/27 07:58:22;;;;;;;4.47;1.33;;;23.20;88.60;;;;;;5076163;28;20025;-58
2021/12/27 08:00:50;;;;;;;2.63;0.98;;;23.20;88.70;;;;;;5076336;28;20041;-51
2021/12/27 08:03:21;;;;;;;2.50;0.95;;;23.20;88.70;;;;;;5076336;28;20055;-60
2021/12/27 08:05:49;;;;;;;4.85;1.40;;;23.20;88.70;;;;;;5076066;28;20107;-56
2021/12/27 08:08:20;;;;;;;3.67;1.40;;;23.20;88.80;;;;;;5076022;28;20083;-61
2021/12/27 08:10:47;;;;;;;3.85;1.33;;;23.20;88.70;;;;;;5076217;28;20032;-61
2021/12/27 08:13:15;;;;;;;3.25;1.10;;;23.20;88.70;;;;;;5075683;28;20099;-59
2021/12/27 08:15:45;;;;;;;3.33;1.27;;;23.20;88.80;;;;;;5075636;28;20036;-54
2021/12/27 08:18:13;;;;;;;3.28;1.00;;;23.20;88.80;;;;;;5075561;28;20055;-58
2021/12/27 08:20:41;;;;;;;5.95;1.40;;;23.10;88.70;;;;;;5075748;28;20029;-58
2021/12/27 08:23:08;;;;;;;4.55;1.60;;;23.10;88.70;;;;;;5075460;28;20027;-58
2021/12/27 08:25:36;;;;;;;4.95;1.65;;;23.10;88.70;;;;;;5075697;28;20063;-57
2021/12/27 08:28:04;;;;;;;3.53;1.42;;;23.10;88.70;;;;;;5075127;28;20060;-61
2021/12/27 08:30:31;;;;;;;4.07;1.50;;;23.10;88.70;;;;;;5075820;28;20463;-59
2021/12/27 08:32:59;;;;;;;3.10;1.20;;;23.10;88.70;;;;;;5075556;28;20077;-57
2021/12/27 08:35:27;;;;;;;3.45;1.02;;;23.10;88.80;;;;;;5075591;28;20368;-58
2021/12/27 08:37:55;;;;;;;4.38;1.77;;;23.10;88.80;;;;;;5075529;28;20021;-54
2021/12/27 08:40:22;;;;;;;3.75;1.30;;;23.10;88.70;;;;;;5074590;28;20372;-53
2021/12/27 08:42:50;;;;;;;3.15;1.58;;;23.10;88.80;;;;;;5075726;28;20482;-60
2021/12/27 08:45:18;;;;;;;2.13;1.13;;;23.10;88.80;;;;;;5075172;28;20060;-59
2021/12/27 08:47:48;;;;;;;3.75;1.20;;;23.10;88.80;;;;;;5075072;28;20028;-59
2021/12/27 08:50:17;;;;;;;4.30;1.15;;;23.10;88.80;;;;;;5075011;28;20029;-61
2021/12/27 08:52:47;;;;;;;5.20;1.55;;;23.10;88.80;;;;;;5075140;28;20491;-62
2021/12/27 08:55:15;;;;;;;2.42;1.15;;;23.00;88.80;;;;;;5076237;28;20083;-58
2021/12/27 08:57:43;;;;;;;3.10;1.40;;;23.00;88.80;;;;;;5075142;28;20043;-51
2021/12/27 09:00:15;;;;;;;4.22;1.33;;;23.00;88.80;;;;;;5074652;28;20028;-57
2021/12/27 09:02:49;;;;;;;3.83;1.42;;;23.00;88.80;;;;;;5075535;28;20024;-60
2021/12/27 09:05:17;;;;;;;4.90;1.55;;;23.00;88.80;;;;;;5074816;28;20039;-60
2021/12/27 09:07:44;;;;;;;3.22;1.15;;;23.00;88.90;;;;;;5075045;28;20471;-56
2021/12/27 09:10:14;;;;;;;4.63;1.30;;;23.00;88.90;;;;;;5074946;28;20040;-59
2021/12/27 09:12:43;;;;;;;5.10;1.80;;;23.00;88.90;;;;;;5075499;28;20124;-57
2021/12/27 09:15:15;;;;;;;3.70;1.20;;;22.90;88.80;;;;;;5075141;28;20387;-55
2021/12/27 09:17:41;;;;;;;;;;;22.90;88.80;;;;;;5075385;28;20025;-52
2021/12/27 09:20:09;;;;;;;4.07;1.48;;;22.90;88.80;;;;;;5074672;28;19909;-55
2021/12/27 09:22:40;;;;;;;3.83;1.13;;;22.90;88.90;;;;;;5074978;28;20093;-56
2021/12/27 09:25:08;;;;;;;4.35;1.35;;;22.90;88.80;;;;;;5075158;28;20052;-50
2021/12/27 09:27:35;;;;;;;5.18;1.60;;;22.90;88.80;;;;;;5073505;28;20028;-52
2021/12/27 09:30:04;;;;;;;3.50;1.25;;;22.90;88.80;;;;;;5074287;28;20043;-61
2021/12/27 09:32:32;;;;;;;4.35;1.60;;;22.90;88.80;;;;;;5073268;28;20020;-58
2021/12/27 09:35:00;;;;;;;4.55;1.48;;;22.90;88.90;;;;;;5074531;28;20043;-57
2021/12/27 09:37:27;;;;;;;4.22;1.30;;;22.90;88.80;;;;;;5074458;28;20028;-61
2021/12/27 09:40:01;;;;;;;3.47;1.27;;;22.80;88.80;;;;;;5074412;28;20075;-61
2021/12/27 09:42:28;;;;;;;3.92;1.55;;;22.80;88.70;;;;;;5074754;28;20110;-60
2021/12/27 09:44:59;;;;;;;3.42;1.30;;;22.80;88.80;;;;;;5074160;28;20490;-58
2021/12/27 09:47:31;;;;;;;4.40;1.35;;;22.80;88.80;;;;;;5074341;28;20324;-63
2021/12/27 09:50:18;;;;;;;;;;;22.80;88.80;;;;;;5074549;28;20032;-59
2021/12/27 09:52:46;;;;;;;4.38;1.02;;;22.70;88.80;;;;;;5072697;28;19958;-62
2021/12/27 09:55:13;;;;;;;3.78;1.30;;;22.70;88.90;;;;;;5074042;28;20376;-61
2021/12/27 09:57:41;;;;;;;3.30;1.30;;;22.70;88.90;;;;;;5074010;28;20029;-57
2021/12/27 10:00:10;;;;;;;3.88;1.33;;;22.70;89.00;;;;;;5073818;28;20060;-62
2021/12/27 10:02:39;;;;;;;5.38;1.58;;;22.70;89.10;;;;;;5072868;28;20119;-60
2021/12/27 10:05:08;;;;;;;4.78;1.55;;;22.70;89.10;;;;;;5074340;28;20029;-59
2021/12/27 10:07:41;;;;;;;5.18;1.75;;;22.70;89.10;;;;;;5073600;28;20055;-61
2021/12/27 10:10:11;;;;;;;4.28;1.45;;;22.60;89.20;;;;;;5073706;28;20067;-63
2021/12/27 10:12:39;;;;;;;3.63;1.48;;;22.60;89.10;;;;;;5074086;28;20091;-51
2021/12/27 10:15:11;;;;;;;4.50;1.17;;;22.60;89.20;;;;;;5073578;28;20028;-59
2021/12/27 10:17:41;;;;;;;4.18;1.33;;;22.60;89.30;;;;;;5073953;28;20095;-61
2021/12/27 10:20:16;;;;;;;3.38;1.65;;;22.50;89.30;;;;;;5073057;28;20436;-59
2021/12/27 10:22:52;;;;;;;4.35;1.70;;;22.50;89.90;;;;;;5073476;28;20048;-58
2021/12/27 10:25:23;;;;;;;3.80;1.60;;;22.50;89.30;;;;;;5073729;28;20040;-55
2021/12/27 10:27:56;;;;;;;4.20;1.63;;;22.50;89.40;;;;;;5073024;28;20525;-57
2021/12/27 10:30:29;;;;;;;3.63;1.50;;;22.50;89.40;;;;;;5073591;28;20044;-57
2021/12/27 10:33:23;;;;;;;2.65;1.20;;;22.50;89.50;;;;;;5073892;28;20031;-56
2021/12/27 10:35:54;;;;;;;4.50;1.20;;;22.50;89.40;;;;;;5073355;28;20020;-59
2021/12/27 10:38:27;;;;;;;4.17;1.67;;;22.40;89.50;;;;;;5073252;28;20426;-58
2021/12/27 10:40:58;;;;;;;4.00;1.17;;;22.40;89.50;;;;;;5073411;28;20339;-52
2021/12/27 10:43:44;;;;;;;3.23;0.90;;;22.40;89.60;;;;;;5073236;28;20126;-62
2021/12/27 10:46:20;;;;;;;4.03;1.52;;;22.40;89.50;;;;;;5072926;28;20030;-59
2021/12/27 10:48:59;;;;;;;4.07;1.23;;;22.40;89.60;;;;;;5073301;28;20495;-58
2021/12/27 10:51:29;;;;;;;3.83;1.40;;;22.40;89.70;;;;;;5072957;28;20467;-60
2021/12/27 10:54:02;;;;;;;4.78;1.63;;;22.40;89.60;;;;;;5072627;28;20379;-60
2021/12/27 10:56:51;;;;;;;3.22;1.48;;;22.40;89.60;;;;;;5072825;28;20112;-56
2021/12/27 10:59:20;;;;;;;3.15;1.60;;;22.40;90.00;;;;;;5072755;28;20059;-60
2021/12/27 11:01:49;;;;;;;4.43;1.55;;;22.40;89.60;;;;;;5072974;28;20025;-56
2021/12/27 11:04:18;;;;;;;5.47;1.73;;;22.40;89.70;;;;;;5076166;28;20025;-58
2021/12/27 11:06:48;;;;;;;5.28;1.77;;;22.40;89.80;;;;;;5077073;28;20125;-61
2021/12/27 11:09:17;;;;;;;3.97;1.35;;;22.30;89.80;;;;;;5076223;28;20037;-59
2021/12/27 11:11:45;;;;;;;3.92;1.40;;;22.30;89.70;;;;;;5077689;28;20028;-57
2021/12/27 11:14:12;;;;;;;5.05;1.52;;;22.30;89.80;;;;;;5077051;28;20042;-53
2021/12/27 11:16:40;;;;;;;3.35;1.50;;;22.30;89.80;;;;;;5077162;28;20052;-57
2021/12/27 11:19:07;;;;;;;4.68;1.30;;;22.30;89.80;;;;;;5077220;28;20017;-56
2021/12/27 11:21:42;;;;;;;3.75;1.73;;;22.30;89.90;;;;;;5076936;28;20383;-58
2021/12/27 11:24:10;;;;;;;5.15;1.60;;;22.30;89.90;;;;;;5076789;28;20077;-53
2021/12/27 11:26:42;;;;;;;3.58;1.48;;;22.20;89.80;;;;;;5076613;28;20479;-62
2021/12/27 11:29:21;;;;;;;4.88;1.55;;;22.30;89.90;;;;;;5076580;28;20036;-56
2021/12/27 11:31:52;;;;;;;3.38;1.50;;;22.20;89.90;;;;;;5075677;28;20028;-57
2021/12/27 11:34:22;;;;;;;3.55;1.05;;;22.20;89.90;;;;;;5076619;28;20039;-52
2021/12/27 11:36:58;;;;;;;3.38;1.15;;;22.20;90.00;;;;;;5076510;28;20027;-58
2021/12/27 11:39:30;;;;;;;2.75;1.17;;;22.20;90.00;;;;;;5076315;28;20436;-57
2021/12/27 11:42:05;;;;;;;3.45;1.33;;;22.20;90.00;;;;;;5076395;28;20021;-57
2021/12/27 11:44:45;;;;;;;4.60;1.20;;;22.20;90.00;;;;;;5075485;28;20032;-58
2021/12/27 11:47:22;;;;;;;5.40;2.05;;;22.20;90.00;;;;;;5076381;28;20475;-57
2021/12/27 11:49:59;;;;;;;4.55;1.42;;;22.20;90.00;;;;;;5076220;28;20036;-57
2021/12/27 11:52:33;;;;;;;4.57;1.70;;;22.10;90.00;;;;;;5074782;28;20032;-54
2021/12/27 11:55:07;;;;;;;5.72;1.30;;;22.10;90.00;;;;;;5076111;28;20048;-55
2021/12/27 11:57:47;;;;;;;5.93;1.52;;;22.10;90.10;;;;;;5075913;28;20386;-54
2021/12/27 12:00:27;;;;;;;4.00;1.30;;;22.10;90.10;;;;;;5075912;28;20536;-58
2021/12/27 12:03:10;;;;;;;4.25;1.50;;;22.10;90.10;;;;;;5076309;28;20036;-57
2021/12/27 12:05:54;;;;;;;3.15;1.20;;;22.10;90.10;;;;;;5076161;28;20020;-57
2021/12/27 12:08:40;;;;;;;5.22;1.60;;;22.10;90.10;;;;;;5076121;28;20031;-54
2021/12/27 12:11:10;;;;;;;4.43;1.38;;;22.00;90.10;;;;;;5075973;28;20032;-52
2021/12/27 12:13:47;;;;;;;3.30;1.52;;;22.00;90.20;;;;;;5075982;28;20468;-56
2021/12/27 12:16:18;;;;;;;4.50;1.67;;;22.00;90.20;;;;;;5074965;28;20108;-57
2021/12/27 12:18:52;;;;;;;2.63;1.10;;;22.00;90.10;;;;;;5075923;28;20446;-58
2021/12/27 12:21:34;;;;;;;4.50;1.42;;;22.10;90.10;;;;;;5076318;28;20024;-51
2021/12/27 12:24:05;;;;;;;3.55;1.40;;;22.10;90.20;;;;;;5076141;28;20025;-48
2021/12/27 12:27:00;;;;;;;4.75;1.45;;;22.00;90.20;;;;;;5075880;28;20029;-52
2021/12/27 12:29:45;;;;;;;3.65;1.58;;;22.00;90.20;;;;;;5075529;28;20032;-56
2021/12/27 12:32:15;;;;;;;4.70;1.83;;;22.00;90.10;;;;;;5074272;28;20383;-57
2021/12/27 12:34:43;;;;;;;6.13;1.58;;;22.00;90.20;;;;;;5075638;28;20032;-60
2021/12/27 12:37:14;;;;;;;5.00;1.67;;;22.00;90.20;;;;;;5075350;28;20104;-55
2021/12/27 12:40:00;;;;;;;3.25;1.48;;;22.00;90.20;;;;;;5075666;28;20319;-56
2021/12/27 12:42:28;;;;;;;4.43;1.60;;;22.00;90.20;;;;;;5075193;28;20175;-60
2021/12/27 12:44:59;;;;;;;5.63;1.42;;;22.00;90.20;;;;;;5074070;28;20028;-60
2021/12/27 12:47:35;;;;;;;4.10;1.75;;;22.00;90.20;;;;;;5075329;28;20048;-59
2021/12/27 12:50:11;;;;;;;3.83;1.40;;;21.90;90.20;;;;;;5074945;28;20060;-57
2021/12/27 12:52:52;;;;;;;3.80;1.50;;;22.00;90.20;;;;;;5075328;28;20021;-57
2021/12/27 12:55:24;;;;;;;6.33;1.50;;;21.90;90.20;;;;;;5074967;28;20052;-58
2021/12/27 12:57:52;;;;;;;3.08;1.25;;;22.00;90.20;;;;;;5074552;28;20356;-56
2021/12/27 13:00:28;;;;;;;4.95;1.50;;;21.90;90.20;;;;;;5075205;28;20434;-60
2021/12/27 13:03:09;;;;;;;4.55;1.63;;;21.90;90.20;;;;;;5074033;28;20040;-59
2021/12/27 13:05:36;;;;;;;4.90;1.55;;;21.90;90.20;;;;;;5075044;28;20407;-54